sensor_id;sensor_type;location;lat;lon;timestamp;temperature;humidity
3312;DHT22;1668;49.648;8.570;2024-02-26T00:02:00;8.50;99.90
3312;DHT22;1668;49.648;8.570;2024-02-26T00:04:27;8.50;99.90
3312;DHT22;1668;49.648;8.570;2024-02-26T00:06:54;8.40;99.90
3312;DHT22;1668;49.648;8.570;2024-02-26T00:09:21;8.40;99.90
3312;DHT22;1668;49.648;8.570;2024-02-26T00:11:48;8.40;99.90
3312;DHT22;1668;49.648;8.570;2024-02-26T00:14:15;8.40;99.90
3312;DHT22;1668;49.648;8.570;2024-02-26T00:16:42;8.50;99.90
3312;DHT22;1668;49.648;8.570;2024-02-26T00:19:12;8.50;99.90
3312;DHT22;1668;49.648;8.570;2024-02-26T00:21:40;8.50;99.90
3312;DHT22;1668;49.648;8.570;2024-02-26T00:24:07;8.60;99.90
3312;DHT22;1668;49.648;8.570;2024-02-26T00:26:34;8.60;99.90
3312;DHT22;1668;49.648;8.570;2024-02-26T00:29:01;8.60;99.90
3312;DHT22;1668;49.648;8.570;2024-02-26T00:31:28;8.50;99.90
3312;DHT22;1668;49.648;8.570;2024-02-26T00:33:55;8.50;99.90
3312;DHT22;1668;49.648;8.570;2024-02-26T00:36:23;8.50;99.90
3312;DHT22;1668;49.648;8.570;2024-02-26T00:38:50;8.50;99.90
3312;DHT22;1668;49.648;8.570;2024-02-26T00:41:17;8.40;99.90
3312;DHT22;1668;49.648;8.570;2024-02-26T00:43:44;8.40;99.90
3312;DHT22;1668;49.648;8.570;2024-02-26T00:46:10;8.40;99.90
3312;DHT22;1668;49.648;8.570;2024-02-26T00:48:37;8.40;99.90
3312;DHT22;1668;49.648;8.570;2024-02-26T00:51:05;8.40;99.90
3312;DHT22;1668;49.648;8.570;2024-02-26T00:53:34;8.50;99.90
3312;DHT22;1668;49.648;8.570;2024-02-26T00:56:01;8.50;99.90
3312;DHT22;1668;49.648;8.570;2024-02-26T00:58:28;8.50;99.90
3312;DHT22;1668;49.648;8.570;2024-02-26T01:00:54;8.50;99.90
3312;DHT22;1668;49.648;8.570;2024-02-26T01:03:21;8.50;99.90
3312;DHT22;1668;49.648;8.570;2024-02-26T01:05:48;8.50;99.90
3312;DHT22;1668;49.648;8.570;2024-02-26T01:08:15;8.50;99.90
3312;DHT22;1668;49.648;8.570;2024-02-26T01:10:43;8.50;99.90
3312;DHT22;1668;49.648;8.570;2024-02-26T01:13:10;8.50;99.90
3312;DHT22;1668;49.648;8.570;2024-02-26T01:15:37;8.50;99.90
3312;DHT22;1668;49.648;8.570;2024-02-26T01:18:04;8.50;99.90
3312;DHT22;1668;49.648;8.570;2024-02-26T01:20:31;8.50;99.90
3312;DHT22;1668;49.648;8.570;2024-02-26T01:22:57;8.40;99.90
3312;DHT22;1668;49.648;8.570;2024-02-26T01:25:24;8.40;99.90
3312;DHT22;1668;49.648;8.570;2024-02-26T01:27:52;8.40;99.90
3312;DHT22;1668;49.648;8.570;2024-02-26T01:30:19;8.40;99.90
3312;DHT22;1668;49.648;8.570;2024-02-26T01:32:46;8.40;99.90
3312;DHT22;1668;49.648;8.570;2024-02-26T01:35:13;8.40;99.90
3312;DHT22;1668;49.648;8.570;2024-02-26T01:37:39;8.40;99.90
3312;DHT22;1668;49.648;8.570;2024-02-26T01:40:08;8.40;99.90
3312;DHT22;1668;49.648;8.570;2024-02-26T01:42:38;8.30;99.90
3312;DHT22;1668;49.648;8.570;2024-02-26T01:45:12;8.30;99.90
3312;DHT22;1668;49.648;8.570;2024-02-26T01:47:41;8.30;99.90
3312;DHT22;1668;49.648;8.570;2024-02-26T01:50:08;8.30;1.00
3312;DHT22;1668;49.648;8.570;2024-02-26T01:52:35;8.20;1.00
3312;DHT22;1668;49.648;8.570;2024-02-26T01:55:02;8.20;1.00
3312;DHT22;1668;49.648;8.570;2024-02-26T01:57:29;8.20;1.00
3312;DHT22;1668;49.648;8.570;2024-02-26T01:59:56;8.20;1.00
3312;DHT22;1668;49.648;8.570;2024-02-26T02:02:25;8.20;1.00
3312;DHT22;1668;49.648;8.570;2024-02-26T02:04:52;8.10;1.00
3312;DHT22;1668;49.648;8.570;2024-02-26T02:07:19;8.10;1.00
3312;DHT22;1668;49.648;8.570;2024-02-26T02:09:47;8.10;1.00
3312;DHT22;1668;49.648;8.570;2024-02-26T02:12:13;8.10;1.00
3312;DHT22;1668;49.648;8.570;2024-02-26T02:14:40;8.00;1.00
3312;DHT22;1668;49.648;8.570;2024-02-26T02:17:07;8.00;1.00
3312;DHT22;1668;49.648;8.570;2024-02-26T02:19:35;8.00;1.00
3312;DHT22;1668;49.648;8.570;2024-02-26T02:22:04;8.00;1.00
3312;DHT22;1668;49.648;8.570;2024-02-26T02:24:30;7.90;1.00
3312;DHT22;1668;49.648;8.570;2024-02-26T02:26:57;8.00;1.00
3312;DHT22;1668;49.648;8.570;2024-02-26T02:29:24;7.90;44.10
3312;DHT22;1668;49.648;8.570;2024-02-26T02:31:53;7.90;38.30
3312;DHT22;1668;49.648;8.570;2024-02-26T02:34:21;7.90;59.30
3312;DHT22;1668;49.648;8.570;2024-02-26T02:36:49;7.90;99.90
3312;DHT22;1668;49.648;8.570;2024-02-26T02:39:17;7.90;99.90
3312;DHT22;1668;49.648;8.570;2024-02-26T02:41:44;7.80;99.90
3312;DHT22;1668;49.648;8.570;2024-02-26T02:44:11;7.80;1.00
3312;DHT22;1668;49.648;8.570;2024-02-26T02:46:38;7.80;1.00
3312;DHT22;1668;49.648;8.570;2024-02-26T02:49:08;7.80;1.00
3312;DHT22;1668;49.648;8.570;2024-02-26T02:51:35;7.80;99.90
3312;DHT22;1668;49.648;8.570;2024-02-26T02:54:02;7.80;99.90
3312;DHT22;1668;49.648;8.570;2024-02-26T02:56:30;7.80;1.00
3312;DHT22;1668;49.648;8.570;2024-02-26T02:58:57;7.80;79.40
3312;DHT22;1668;49.648;8.570;2024-02-26T03:01:23;7.80;1.00
3312;DHT22;1668;49.648;8.570;2024-02-26T03:03:50;7.70;1.00
3312;DHT22;1668;49.648;8.570;2024-02-26T03:06:17;7.70;1.00
3312;DHT22;1668;49.648;8.570;2024-02-26T03:08:44;7.70;99.90
3312;DHT22;1668;49.648;8.570;2024-02-26T03:11:13;7.70;99.90
3312;DHT22;1668;49.648;8.570;2024-02-26T03:13:42;7.70;1.00
3312;DHT22;1668;49.648;8.570;2024-02-26T03:16:09;7.70;99.90
3312;DHT22;1668;49.648;8.570;2024-02-26T03:18:35;7.70;1.00
3312;DHT22;1668;49.648;8.570;2024-02-26T03:21:04;7.70;1.00
3312;DHT22;1668;49.648;8.570;2024-02-26T03:23:31;7.60;39.90
3312;DHT22;1668;49.648;8.570;2024-02-26T03:26:02;7.60;99.90
3312;DHT22;1668;49.648;8.570;2024-02-26T03:28:29;7.60;1.00
3312;DHT22;1668;49.648;8.570;2024-02-26T03:30:57;7.60;99.90
3312;DHT22;1668;49.648;8.570;2024-02-26T03:33:24;7.60;1.00
3312;DHT22;1668;49.648;8.570;2024-02-26T03:35:51;7.50;1.00
3312;DHT22;1668;49.648;8.570;2024-02-26T03:38:18;7.60;1.00
3312;DHT22;1668;49.648;8.570;2024-02-26T03:40:44;7.50;1.00
3312;DHT22;1668;49.648;8.570;2024-02-26T03:43:11;7.50;1.00
3312;DHT22;1668;49.648;8.570;2024-02-26T03:45:38;7.50;1.00
3312;DHT22;1668;49.648;8.570;2024-02-26T03:48:07;7.50;13.40
3312;DHT22;1668;49.648;8.570;2024-02-26T03:50:34;7.50;89.40
3312;DHT22;1668;49.648;8.570;2024-02-26T03:53:01;7.50;99.90
3312;DHT22;1668;49.648;8.570;2024-02-26T03:55:27;7.50;99.90
3312;DHT22;1668;49.648;8.570;2024-02-26T03:57:54;7.40;99.90
3312;DHT22;1668;49.648;8.570;2024-02-26T04:00:21;7.40;99.90
3312;DHT22;1668;49.648;8.570;2024-02-26T04:02:48;7.40;99.90
3312;DHT22;1668;49.648;8.570;2024-02-26T04:05:16;7.40;99.90
3312;DHT22;1668;49.648;8.570;2024-02-26T04:07:43;7.40;1.00
3312;DHT22;1668;49.648;8.570;2024-02-26T04:10:10;7.30;1.00
3312;DHT22;1668;49.648;8.570;2024-02-26T04:12:38;7.30;1.00
3312;DHT22;1668;49.648;8.570;2024-02-26T04:15:07;7.30;1.00
3312;DHT22;1668;49.648;8.570;2024-02-26T04:17:34;7.30;1.00
3312;DHT22;1668;49.648;8.570;2024-02-26T04:20:00;7.30;1.00
3312;DHT22;1668;49.648;8.570;2024-02-26T04:22:29;7.30;1.00
3312;DHT22;1668;49.648;8.570;2024-02-26T04:24:55;7.30;1.00
3312;DHT22;1668;49.648;8.570;2024-02-26T04:27:22;7.30;1.00
3312;DHT22;1668;49.648;8.570;2024-02-26T04:29:49;7.30;1.00
3312;DHT22;1668;49.648;8.570;2024-02-26T04:32:16;7.30;1.00
3312;DHT22;1668;49.648;8.570;2024-02-26T04:34:42;7.30;1.00
3312;DHT22;1668;49.648;8.570;2024-02-26T04:37:09;7.30;1.00
3312;DHT22;1668;49.648;8.570;2024-02-26T04:39:37;7.30;1.00
3312;DHT22;1668;49.648;8.570;2024-02-26T04:42:04;7.20;1.00
3312;DHT22;1668;49.648;8.570;2024-02-26T04:44:31;7.20;1.00
3312;DHT22;1668;49.648;8.570;2024-02-26T04:46:58;7.20;7.10
3312;DHT22;1668;49.648;8.570;2024-02-26T04:49:27;7.20;25.10
3312;DHT22;1668;49.648;8.570;2024-02-26T04:51:53;7.20;64.20
3312;DHT22;1668;49.648;8.570;2024-02-26T04:54:20;7.10;80.60
3312;DHT22;1668;49.648;8.570;2024-02-26T04:56:49;7.20;80.50
3312;DHT22;1668;49.648;8.570;2024-02-26T04:59:15;7.20;81.90
3312;DHT22;1668;49.648;8.570;2024-02-26T05:01:42;7.10;80.30
3312;DHT22;1668;49.648;8.570;2024-02-26T05:04:09;7.10;84.60
3312;DHT22;1668;49.648;8.570;2024-02-26T05:06:36;7.10;99.90
3312;DHT22;1668;49.648;8.570;2024-02-26T05:09:04;7.10;99.90
3312;DHT22;1668;49.648;8.570;2024-02-26T05:11:31;7.10;99.90
3312;DHT22;1668;49.648;8.570;2024-02-26T05:13:59;7.10;99.90
3312;DHT22;1668;49.648;8.570;2024-02-26T05:16:26;7.10;99.90
3312;DHT22;1668;49.648;8.570;2024-02-26T05:18:55;7.10;99.90
3312;DHT22;1668;49.648;8.570;2024-02-26T05:21:22;7.10;99.90
3312;DHT22;1668;49.648;8.570;2024-02-26T05:23:49;7.10;99.10
3312;DHT22;1668;49.648;8.570;2024-02-26T05:26:19;7.10;99.90
3312;DHT22;1668;49.648;8.570;2024-02-26T05:28:46;7.10;96.60
3312;DHT22;1668;49.648;8.570;2024-02-26T05:31:15;7.10;99.90
3312;DHT22;1668;49.648;8.570;2024-02-26T05:33:42;7.00;96.60
3312;DHT22;1668;49.648;8.570;2024-02-26T05:36:09;7.10;94.40
3312;DHT22;1668;49.648;8.570;2024-02-26T05:38:35;7.10;99.90
3312;DHT22;1668;49.648;8.570;2024-02-26T05:41:02;7.10;99.90
3312;DHT22;1668;49.648;8.570;2024-02-26T05:43:30;7.10;99.90
3312;DHT22;1668;49.648;8.570;2024-02-26T05:45:57;7.10;94.10
3312;DHT22;1668;49.648;8.570;2024-02-26T05:48:25;7.10;99.90
3312;DHT22;1668;49.648;8.570;2024-02-26T05:50:52;7.10;99.90
3312;DHT22;1668;49.648;8.570;2024-02-26T05:53:18;7.10;99.90
3312;DHT22;1668;49.648;8.570;2024-02-26T05:55:45;7.10;99.90
3312;DHT22;1668;49.648;8.570;2024-02-26T05:58:12;7.10;99.90
3312;DHT22;1668;49.648;8.570;2024-02-26T06:00:39;7.10;99.90
3312;DHT22;1668;49.648;8.570;2024-02-26T06:03:06;7.00;99.90
3312;DHT22;1668;49.648;8.570;2024-02-26T06:05:34;7.00;99.90
3312;DHT22;1668;49.648;8.570;2024-02-26T06:08:01;7.00;99.90
3312;DHT22;1668;49.648;8.570;2024-02-26T06:10:28;7.00;99.90
3312;DHT22;1668;49.648;8.570;2024-02-26T06:12:55;7.00;99.90
3312;DHT22;1668;49.648;8.570;2024-02-26T06:15:21;7.10;99.90
3312;DHT22;1668;49.648;8.570;2024-02-26T06:17:48;7.10;99.90
3312;DHT22;1668;49.648;8.570;2024-02-26T06:20:16;7.10;99.90
3312;DHT22;1668;49.648;8.570;2024-02-26T06:22:44;7.10;99.90
3312;DHT22;1668;49.648;8.570;2024-02-26T06:25:11;7.10;99.90
3312;DHT22;1668;49.648;8.570;2024-02-26T06:27:37;7.10;99.90
3312;DHT22;1668;49.648;8.570;2024-02-26T06:30:05;7.20;99.90
3312;DHT22;1668;49.648;8.570;2024-02-26T06:32:34;7.10;99.90
3312;DHT22;1668;49.648;8.570;2024-02-26T06:35:01;7.20;99.90
3312;DHT22;1668;49.648;8.570;2024-02-26T06:37:32;7.20;99.90
3312;DHT22;1668;49.648;8.570;2024-02-26T06:40:00;7.20;99.90
3312;DHT22;1668;49.648;8.570;2024-02-26T06:42:29;7.20;99.90
3312;DHT22;1668;49.648;8.570;2024-02-26T06:44:56;7.20;99.90
3312;DHT22;1668;49.648;8.570;2024-02-26T06:47:23;7.20;99.90
3312;DHT22;1668;49.648;8.570;2024-02-26T06:49:51;7.20;99.90
3312;DHT22;1668;49.648;8.570;2024-02-26T06:52:18;7.10;99.90
3312;DHT22;1668;49.648;8.570;2024-02-26T06:54:45;7.20;99.90
3312;DHT22;1668;49.648;8.570;2024-02-26T06:57:15;7.20;99.90
3312;DHT22;1668;49.648;8.570;2024-02-26T06:59:41;7.20;99.90
3312;DHT22;1668;49.648;8.570;2024-02-26T07:02:11;7.20;99.90
3312;DHT22;1668;49.648;8.570;2024-02-26T07:04:38;7.20;99.90
3312;DHT22;1668;49.648;8.570;2024-02-26T07:07:05;7.20;99.90
3312;DHT22;1668;49.648;8.570;2024-02-26T07:09:31;7.20;99.90
3312;DHT22;1668;49.648;8.570;2024-02-26T07:11:58;7.20;99.90
3312;DHT22;1668;49.648;8.570;2024-02-26T07:14:26;7.20;99.90
3312;DHT22;1668;49.648;8.570;2024-02-26T07:16:53;7.20;99.90
3312;DHT22;1668;49.648;8.570;2024-02-26T07:19:20;7.20;99.90
3312;DHT22;1668;49.648;8.570;2024-02-26T07:21:47;7.20;99.90
3312;DHT22;1668;49.648;8.570;2024-02-26T07:24:13;7.30;99.90
3312;DHT22;1668;49.648;8.570;2024-02-26T07:26:40;7.20;99.90
3312;DHT22;1668;49.648;8.570;2024-02-26T07:29:07;7.20;99.90
3312;DHT22;1668;49.648;8.570;2024-02-26T07:31:35;7.20;99.90
3312;DHT22;1668;49.648;8.570;2024-02-26T07:34:02;7.20;99.90
3312;DHT22;1668;49.648;8.570;2024-02-26T07:36:29;7.20;99.90
3312;DHT22;1668;49.648;8.570;2024-02-26T07:38:55;7.30;99.90
3312;DHT22;1668;49.648;8.570;2024-02-26T07:41:22;7.30;99.90
3312;DHT22;1668;49.648;8.570;2024-02-26T07:43:49;7.30;99.90
3312;DHT22;1668;49.648;8.570;2024-02-26T07:46:16;7.30;99.90
3312;DHT22;1668;49.648;8.570;2024-02-26T07:48:44;7.30;99.90
3312;DHT22;1668;49.648;8.570;2024-02-26T07:51:12;7.30;99.90
3312;DHT22;1668;49.648;8.570;2024-02-26T07:53:39;7.40;99.90
3312;DHT22;1668;49.648;8.570;2024-02-26T07:56:06;7.30;99.90
3312;DHT22;1668;49.648;8.570;2024-02-26T07:58:33;7.40;99.90
3312;DHT22;1668;49.648;8.570;2024-02-26T08:01:00;7.40;99.90
3312;DHT22;1668;49.648;8.570;2024-02-26T08:03:27;7.40;99.90
3312;DHT22;1668;49.648;8.570;2024-02-26T08:05:55;7.40;99.90
3312;DHT22;1668;49.648;8.570;2024-02-26T08:08:22;7.40;99.90
3312;DHT22;1668;49.648;8.570;2024-02-26T08:10:48;7.40;99.90
3312;DHT22;1668;49.648;8.570;2024-02-26T08:13:15;7.40;99.90
3312;DHT22;1668;49.648;8.570;2024-02-26T08:15:42;7.40;99.90
3312;DHT22;1668;49.648;8.570;2024-02-26T08:18:09;7.50;99.90
3312;DHT22;1668;49.648;8.570;2024-02-26T08:20:36;7.50;99.90
3312;DHT22;1668;49.648;8.570;2024-02-26T08:23:04;7.50;99.90
3312;DHT22;1668;49.648;8.570;2024-02-26T08:25:31;7.50;99.90
3312;DHT22;1668;49.648;8.570;2024-02-26T08:27:58;7.50;99.90
3312;DHT22;1668;49.648;8.570;2024-02-26T08:30:25;7.50;99.90
3312;DHT22;1668;49.648;8.570;2024-02-26T08:32:52;7.60;99.90
3312;DHT22;1668;49.648;8.570;2024-02-26T08:35:19;7.60;99.90
3312;DHT22;1668;49.648;8.570;2024-02-26T08:37:46;7.60;99.90
3312;DHT22;1668;49.648;8.570;2024-02-26T08:40:15;7.60;99.90
3312;DHT22;1668;49.648;8.570;2024-02-26T08:42:42;7.70;99.90
3312;DHT22;1668;49.648;8.570;2024-02-26T08:45:09;7.70;99.90
3312;DHT22;1668;49.648;8.570;2024-02-26T08:47:36;7.70;99.90
3312;DHT22;1668;49.648;8.570;2024-02-26T08:50:04;7.70;99.90
3312;DHT22;1668;49.648;8.570;2024-02-26T08:52:32;7.70;99.90
3312;DHT22;1668;49.648;8.570;2024-02-26T08:54:59;7.80;99.90
3312;DHT22;1668;49.648;8.570;2024-02-26T08:57:27;7.80;99.90
3312;DHT22;1668;49.648;8.570;2024-02-26T08:59:54;7.80;99.90
3312;DHT22;1668;49.648;8.570;2024-02-26T09:02:20;7.90;99.90
3312;DHT22;1668;49.648;8.570;2024-02-26T09:04:48;7.90;99.90
3312;DHT22;1668;49.648;8.570;2024-02-26T09:07:16;8.00;99.90
3312;DHT22;1668;49.648;8.570;2024-02-26T09:09:43;8.00;99.90
3312;DHT22;1668;49.648;8.570;2024-02-26T09:12:10;8.00;99.90
3312;DHT22;1668;49.648;8.570;2024-02-26T09:14:38;8.10;99.90
3312;DHT22;1668;49.648;8.570;2024-02-26T09:17:05;8.20;99.90
3312;DHT22;1668;49.648;8.570;2024-02-26T09:19:33;8.20;99.90
3312;DHT22;1668;49.648;8.570;2024-02-26T09:22:00;8.30;99.90
3312;DHT22;1668;49.648;8.570;2024-02-26T09:24:26;8.20;99.90
3312;DHT22;1668;49.648;8.570;2024-02-26T09:26:53;8.30;99.90
3312;DHT22;1668;49.648;8.570;2024-02-26T09:29:20;8.30;99.90
3312;DHT22;1668;49.648;8.570;2024-02-26T09:31:48;8.30;99.90
3312;DHT22;1668;49.648;8.570;2024-02-26T09:34:15;8.40;99.90
3312;DHT22;1668;49.648;8.570;2024-02-26T09:36:42;8.40;99.90
3312;DHT22;1668;49.648;8.570;2024-02-26T09:39:09;8.40;99.90
3312;DHT22;1668;49.648;8.570;2024-02-26T09:41:37;8.40;99.90
3312;DHT22;1668;49.648;8.570;2024-02-26T09:44:05;8.40;99.90
3312;DHT22;1668;49.648;8.570;2024-02-26T09:46:33;8.50;99.90
3312;DHT22;1668;49.648;8.570;2024-02-26T09:49:01;8.50;99.90
3312;DHT22;1668;49.648;8.570;2024-02-26T09:51:28;8.50;99.90
3312;DHT22;1668;49.648;8.570;2024-02-26T09:53:56;8.50;99.90
3312;DHT22;1668;49.648;8.570;2024-02-26T09:56:26;8.60;95.20
3312;DHT22;1668;49.648;8.570;2024-02-26T09:58:54;8.60;29.80
3312;DHT22;1668;49.648;8.570;2024-02-26T10:01:22;8.60;1.00
3312;DHT22;1668;49.648;8.570;2024-02-26T10:03:54;8.70;8.60
3312;DHT22;1668;49.648;8.570;2024-02-26T10:06:23;8.70;12.90
3312;DHT22;1668;49.648;8.570;2024-02-26T10:08:51;8.80;34.80
3312;DHT22;1668;49.648;8.570;2024-02-26T10:11:19;8.80;1.00
3312;DHT22;1668;49.648;8.570;2024-02-26T10:13:47;8.90;1.00
3312;DHT22;1668;49.648;8.570;2024-02-26T10:16:14;8.90;1.00
3312;DHT22;1668;49.648;8.570;2024-02-26T10:18:46;8.90;1.00
3312;DHT22;1668;49.648;8.570;2024-02-26T10:21:13;9.00;1.00
3312;DHT22;1668;49.648;8.570;2024-02-26T10:23:43;9.00;1.00
3312;DHT22;1668;49.648;8.570;2024-02-26T10:26:10;9.00;1.00
3312;DHT22;1668;49.648;8.570;2024-02-26T10:28:39;9.10;1.00
3312;DHT22;1668;49.648;8.570;2024-02-26T10:31:06;9.10;1.00
3312;DHT22;1668;49.648;8.570;2024-02-26T10:33:33;9.10;1.00
3312;DHT22;1668;49.648;8.570;2024-02-26T10:36:01;9.20;1.00
3312;DHT22;1668;49.648;8.570;2024-02-26T10:38:29;9.20;1.00
3312;DHT22;1668;49.648;8.570;2024-02-26T10:40:57;9.20;1.00
3312;DHT22;1668;49.648;8.570;2024-02-26T10:43:25;9.20;1.00
3312;DHT22;1668;49.648;8.570;2024-02-26T10:45:52;9.30;1.00
3312;DHT22;1668;49.648;8.570;2024-02-26T10:48:21;9.30;1.00
3312;DHT22;1668;49.648;8.570;2024-02-26T10:50:48;9.40;1.00
3312;DHT22;1668;49.648;8.570;2024-02-26T10:53:17;9.40;1.00
3312;DHT22;1668;49.648;8.570;2024-02-26T10:55:48;9.50;1.00
3312;DHT22;1668;49.648;8.570;2024-02-26T10:58:17;9.50;99.90
3312;DHT22;1668;49.648;8.570;2024-02-26T11:00:45;9.60;99.90
3312;DHT22;1668;49.648;8.570;2024-02-26T11:03:15;9.60;99.90
3312;DHT22;1668;49.648;8.570;2024-02-26T11:05:44;9.80;99.90
3312;DHT22;1668;49.648;8.570;2024-02-26T11:08:12;9.90;99.90
3312;DHT22;1668;49.648;8.570;2024-02-26T11:10:39;10.00;1.00
3312;DHT22;1668;49.648;8.570;2024-02-26T11:13:09;10.10;1.00
3312;DHT22;1668;49.648;8.570;2024-02-26T11:15:39;10.20;1.00
3312;DHT22;1668;49.648;8.570;2024-02-26T11:18:07;10.30;1.00
3312;DHT22;1668;49.648;8.570;2024-02-26T11:20:38;10.30;99.90
3312;DHT22;1668;49.648;8.570;2024-02-26T11:23:07;10.40;1.00
3312;DHT22;1668;49.648;8.570;2024-02-26T11:25:34;10.50;1.00
3312;DHT22;1668;49.648;8.570;2024-02-26T11:28:04;10.60;99.90
3312;DHT22;1668;49.648;8.570;2024-02-26T11:30:34;10.70;1.00
3312;DHT22;1668;49.648;8.570;2024-02-26T11:33:03;10.70;99.90
3312;DHT22;1668;49.648;8.570;2024-02-26T11:35:30;10.70;99.90
3312;DHT22;1668;49.648;8.570;2024-02-26T11:37:57;10.80;99.90
3312;DHT22;1668;49.648;8.570;2024-02-26T11:40:27;10.80;1.00
3312;DHT22;1668;49.648;8.570;2024-02-26T11:42:54;10.80;99.90
3312;DHT22;1668;49.648;8.570;2024-02-26T11:45:49;10.80;1.00
3312;DHT22;1668;49.648;8.570;2024-02-26T11:48:22;10.90;1.00
3312;DHT22;1668;49.648;8.570;2024-02-26T11:50:51;10.90;99.90
3312;DHT22;1668;49.648;8.570;2024-02-26T11:53:26;11.00;1.00
3312;DHT22;1668;49.648;8.570;2024-02-26T11:56:13;11.00;1.00
3312;DHT22;1668;49.648;8.570;2024-02-26T11:58:39;11.10;1.00
3312;DHT22;1668;49.648;8.570;2024-02-26T12:01:06;11.10;1.00
3312;DHT22;1668;49.648;8.570;2024-02-26T12:03:56;11.20;99.90
3312;DHT22;1668;49.648;8.570;2024-02-26T12:06:24;11.30;99.90
3312;DHT22;1668;49.648;8.570;2024-02-26T12:08:52;11.30;1.00
3312;DHT22;1668;49.648;8.570;2024-02-26T12:11:20;11.40;2.40
3312;DHT22;1668;49.648;8.570;2024-02-26T12:13:47;11.50;99.90
3312;DHT22;1668;49.648;8.570;2024-02-26T12:16:35;11.50;29.60
3312;DHT22;1668;49.648;8.570;2024-02-26T12:19:04;11.60;1.00
3312;DHT22;1668;49.648;8.570;2024-02-26T12:21:33;11.60;99.90
3312;DHT22;1668;49.648;8.570;2024-02-26T12:24:10;11.60;86.00
3312;DHT22;1668;49.648;8.570;2024-02-26T12:26:38;11.70;1.00
3312;DHT22;1668;49.648;8.570;2024-02-26T12:29:04;11.70;1.00
3312;DHT22;1668;49.648;8.570;2024-02-26T12:31:32;11.90;1.00
3312;DHT22;1668;49.648;8.570;2024-02-26T12:33:59;11.90;1.00
3312;DHT22;1668;49.648;8.570;2024-02-26T12:36:27;12.00;1.00
3312;DHT22;1668;49.648;8.570;2024-02-26T12:38:55;11.90;99.90
3312;DHT22;1668;49.648;8.570;2024-02-26T12:41:22;11.90;99.90
3312;DHT22;1668;49.648;8.570;2024-02-26T12:43:49;11.90;44.20
3312;DHT22;1668;49.648;8.570;2024-02-26T12:46:16;11.90;54.90
3312;DHT22;1668;49.648;8.570;2024-02-26T12:48:43;11.90;25.10
3312;DHT22;1668;49.648;8.570;2024-02-26T12:51:12;12.00;1.00
3312;DHT22;1668;49.648;8.570;2024-02-26T12:53:40;12.00;99.90
3312;DHT22;1668;49.648;8.570;2024-02-26T12:56:08;12.10;99.90
3312;DHT22;1668;49.648;8.570;2024-02-26T12:58:36;12.20;99.90
3312;DHT22;1668;49.648;8.570;2024-02-26T13:01:04;12.40;26.60
3312;DHT22;1668;49.648;8.570;2024-02-26T13:03:32;12.70;99.90
3312;DHT22;1668;49.648;8.570;2024-02-26T13:05:59;13.00;99.90
3312;DHT22;1668;49.648;8.570;2024-02-26T13:08:26;13.20;1.00
3312;DHT22;1668;49.648;8.570;2024-02-26T13:10:54;13.20;99.90
3312;DHT22;1668;49.648;8.570;2024-02-26T13:13:22;13.30;1.00
3312;DHT22;1668;49.648;8.570;2024-02-26T13:15:49;13.40;1.00
3312;DHT22;1668;49.648;8.570;2024-02-26T13:18:16;13.50;99.90
3312;DHT22;1668;49.648;8.570;2024-02-26T13:20:43;13.60;1.00
3312;DHT22;1668;49.648;8.570;2024-02-26T13:23:12;13.50;1.00
3312;DHT22;1668;49.648;8.570;2024-02-26T13:25:39;13.40;1.00
3312;DHT22;1668;49.648;8.570;2024-02-26T13:28:09;13.40;1.00
3312;DHT22;1668;49.648;8.570;2024-02-26T13:30:36;13.40;1.00
3312;DHT22;1668;49.648;8.570;2024-02-26T13:33:10;13.30;1.00
3312;DHT22;1668;49.648;8.570;2024-02-26T13:35:37;13.20;1.00
3312;DHT22;1668;49.648;8.570;2024-02-26T13:38:04;13.20;4.40
3312;DHT22;1668;49.648;8.570;2024-02-26T13:40:32;13.30;90.20
3312;DHT22;1668;49.648;8.570;2024-02-26T13:42:59;13.40;67.30
3312;DHT22;1668;49.648;8.570;2024-02-26T13:45:27;13.30;1.00
3312;DHT22;1668;49.648;8.570;2024-02-26T13:47:54;13.30;1.00
3312;DHT22;1668;49.648;8.570;2024-02-26T13:50:27;13.40;1.00
3312;DHT22;1668;49.648;8.570;2024-02-26T13:52:54;13.40;1.00
3312;DHT22;1668;49.648;8.570;2024-02-26T13:55:21;13.50;1.00
3312;DHT22;1668;49.648;8.570;2024-02-26T13:57:51;13.40;1.00
3312;DHT22;1668;49.648;8.570;2024-02-26T14:00:19;13.40;1.00
3312;DHT22;1668;49.648;8.570;2024-02-26T14:02:47;13.50;1.00
3312;DHT22;1668;49.648;8.570;2024-02-26T14:05:14;13.50;1.00
3312;DHT22;1668;49.648;8.570;2024-02-26T14:07:42;13.40;1.00
3312;DHT22;1668;49.648;8.570;2024-02-26T14:10:09;13.40;1.00
3312;DHT22;1668;49.648;8.570;2024-02-26T14:12:38;13.50;1.00
3312;DHT22;1668;49.648;8.570;2024-02-26T14:15:07;13.40;1.00
3312;DHT22;1668;49.648;8.570;2024-02-26T14:17:34;13.40;1.00
3312;DHT22;1668;49.648;8.570;2024-02-26T14:20:02;13.40;1.00
3312;DHT22;1668;49.648;8.570;2024-02-26T14:22:29;13.40;1.00
3312;DHT22;1668;49.648;8.570;2024-02-26T14:24:56;13.40;6.70
3312;DHT22;1668;49.648;8.570;2024-02-26T14:27:23;13.30;99.90
3312;DHT22;1668;49.648;8.570;2024-02-26T14:29:50;13.30;99.90
3312;DHT22;1668;49.648;8.570;2024-02-26T14:32:16;13.30;99.90
3312;DHT22;1668;49.648;8.570;2024-02-26T14:34:44;13.20;99.90
3312;DHT22;1668;49.648;8.570;2024-02-26T14:37:12;13.20;99.90
3312;DHT22;1668;49.648;8.570;2024-02-26T14:39:39;13.20;99.90
3312;DHT22;1668;49.648;8.570;2024-02-26T14:42:05;13.30;99.90
3312;DHT22;1668;49.648;8.570;2024-02-26T14:44:33;13.30;99.90
3312;DHT22;1668;49.648;8.570;2024-02-26T14:46:59;13.40;1.00
3312;DHT22;1668;49.648;8.570;2024-02-26T14:49:26;13.40;99.90
3312;DHT22;1668;49.648;8.570;2024-02-26T14:51:55;13.40;99.90
3312;DHT22;1668;49.648;8.570;2024-02-26T14:54:23;13.50;99.90
3312;DHT22;1668;49.648;8.570;2024-02-26T14:56:50;13.60;1.00
3312;DHT22;1668;49.648;8.570;2024-02-26T14:59:17;13.80;99.90
3312;DHT22;1668;49.648;8.570;2024-02-26T15:01:43;14.00;99.90
3312;DHT22;1668;49.648;8.570;2024-02-26T15:04:11;14.10;1.00
3312;DHT22;1668;49.648;8.570;2024-02-26T15:06:38;14.10;1.00
3312;DHT22;1668;49.648;8.570;2024-02-26T15:09:05;14.30;1.00
3312;DHT22;1668;49.648;8.570;2024-02-26T15:11:33;14.20;1.00
3312;DHT22;1668;49.648;8.570;2024-02-26T15:14:04;14.20;1.00
3312;DHT22;1668;49.648;8.570;2024-02-26T15:16:30;14.10;1.00
3312;DHT22;1668;49.648;8.570;2024-02-26T15:18:57;14.00;1.00
3312;DHT22;1668;49.648;8.570;2024-02-26T15:21:24;14.10;1.00
3312;DHT22;1668;49.648;8.570;2024-02-26T15:23:51;14.20;1.00
3312;DHT22;1668;49.648;8.570;2024-02-26T15:26:19;14.20;1.00
3312;DHT22;1668;49.648;8.570;2024-02-26T15:28:48;14.10;1.00
3312;DHT22;1668;49.648;8.570;2024-02-26T15:31:16;13.90;1.00
3312;DHT22;1668;49.648;8.570;2024-02-26T15:33:43;14.00;1.00
3312;DHT22;1668;49.648;8.570;2024-02-26T15:36:09;13.90;36.70
3312;DHT22;1668;49.648;8.570;2024-02-26T15:38:36;13.80;1.00
3312;DHT22;1668;49.648;8.570;2024-02-26T15:41:10;13.60;1.00
3312;DHT22;1668;49.648;8.570;2024-02-26T15:43:37;13.60;26.10
3312;DHT22;1668;49.648;8.570;2024-02-26T15:46:06;13.50;28.50
3312;DHT22;1668;49.648;8.570;2024-02-26T15:48:33;13.50;1.00
3312;DHT22;1668;49.648;8.570;2024-02-26T15:51:00;13.40;91.00
3312;DHT22;1668;49.648;8.570;2024-02-26T15:53:27;13.40;59.30
3312;DHT22;1668;49.648;8.570;2024-02-26T15:55:53;13.40;18.00
3312;DHT22;1668;49.648;8.570;2024-02-26T15:58:20;13.30;61.90
3312;DHT22;1668;49.648;8.570;2024-02-26T16:00:49;13.20;36.60
3312;DHT22;1668;49.648;8.570;2024-02-26T16:03:17;13.10;99.90
3312;DHT22;1668;49.648;8.570;2024-02-26T16:05:44;13.10;99.90
3312;DHT22;1668;49.648;8.570;2024-02-26T16:08:13;13.10;99.90
3312;DHT22;1668;49.648;8.570;2024-02-26T16:10:46;13.00;99.90
3312;DHT22;1668;49.648;8.570;2024-02-26T16:13:13;12.90;99.90
3312;DHT22;1668;49.648;8.570;2024-02-26T16:15:45;12.90;99.90
3312;DHT22;1668;49.648;8.570;2024-02-26T16:18:14;12.90;99.90
3312;DHT22;1668;49.648;8.570;2024-02-26T16:20:43;12.80;99.90
3312;DHT22;1668;49.648;8.570;2024-02-26T16:23:09;12.80;99.90